createdAt,value
2018-09-04T00:00:45.938Z,18.98
2018-09-04T00:01:45.684Z,18.94
2018-09-04T00:03:39.073Z,19.01
2018-09-04T00:04:39.040Z,18.98
2018-09-04T00:06:32.753Z,19.04
2018-09-04T00:07:33.273Z,19.01
2018-09-04T00:09:28.372Z,18.97
2018-09-04T00:10:25.600Z,18.98
2018-09-04T00:12:18.988Z,18.98
2018-09-04T00:13:19.055Z,18.98
2018-09-04T00:15:13.663Z,19.08
2018-09-04T00:16:11.913Z,19.01
2018-09-04T00:18:04.718Z,18.93
2018-09-04T00:19:04.724Z,19.05
2018-09-04T00:20:58.098Z,18.97
2018-09-04T00:21:57.819Z,18.93
2018-09-04T00:23:51.517Z,18.93
2018-09-04T00:24:51.435Z,18.94
2018-09-04T00:26:44.887Z,18.97
2018-09-04T00:27:44.835Z,18.97
2018-09-04T00:29:38.232Z,18.93
2018-09-04T00:30:38.252Z,18.97
2018-09-04T00:32:32.417Z,18.88
2018-09-04T00:33:32.160Z,18.89
2018-09-04T00:35:24.710Z,18.96
2018-09-04T00:36:24.968Z,18.97
2018-09-04T00:38:18.394Z,18.94
2018-09-04T00:39:18.439Z,18.94
2018-09-04T00:41:11.714Z,18.93
2018-09-04T00:42:11.693Z,18.93
2018-09-04T00:44:04.608Z,18.93
2018-09-04T00:45:04.444Z,18.85
2018-09-04T00:46:57.909Z,18.97
2018-09-04T00:47:57.674Z,18.94
2018-09-04T00:49:51.297Z,18.93
2018-09-04T00:50:51.038Z,18.91
2018-09-04T00:52:44.651Z,18.88
2018-09-04T00:53:44.412Z,18.85
2018-09-04T00:55:37.520Z,18.93
2018-09-04T00:56:37.285Z,18.94
2018-09-04T00:58:30.689Z,18.94
2018-09-04T00:59:30.678Z,18.94
2018-09-04T01:01:24.304Z,18.81
2018-09-04T01:02:24.026Z,18.85
2018-09-04T01:04:17.440Z,18.81
2018-09-04T01:05:17.613Z,18.83
2018-09-04T01:07:10.919Z,18.81
2018-09-04T01:08:10.797Z,18.83
2018-09-04T01:10:04.169Z,18.76
2018-09-04T01:11:04.145Z,18.75
2018-09-04T01:12:57.752Z,18.68
2018-09-04T01:13:57.521Z,18.74
2018-09-04T01:15:51.135Z,18.71
2018-09-04T01:16:50.903Z,18.66
2018-09-04T01:18:44.354Z,18.67
2018-09-04T01:19:44.057Z,18.58
2018-09-04T01:21:38.265Z,18.58
2018-09-04T01:22:37.437Z,18.46
2018-09-04T01:24:31.074Z,18.48
2018-09-04T01:25:30.789Z,18.43
2018-09-04T01:27:24.482Z,18.46
2018-09-04T01:28:24.205Z,18.42
2018-09-04T01:30:17.608Z,18.36
2018-09-04T01:31:17.909Z,18.41
2018-09-04T01:33:10.532Z,18.28
2018-09-04T01:34:10.714Z,18.24
2018-09-04T01:36:03.715Z,18.27
2018-09-04T01:37:03.569Z,18.23
2018-09-04T01:38:56.951Z,18.17
2018-09-04T01:39:56.982Z,18.15
2018-09-04T01:41:49.873Z,18.17
2018-09-04T01:42:50.401Z,18.15
2018-09-04T01:44:42.968Z,18.17
2018-09-04T01:45:43.221Z,18.05
2018-09-04T01:47:35.874Z,18.08
2018-09-04T01:48:36.107Z,18.11
2018-09-04T01:50:29.258Z,18.06
2018-09-04T01:51:29.000Z,17.97
2018-09-04T01:53:23.429Z,17.93
2018-09-04T01:54:21.834Z,17.87
2018-09-04T01:56:14.585Z,17.84
2018-09-04T01:57:14.409Z,17.83
2018-09-04T01:59:07.981Z,17.75
2018-09-04T02:00:07.770Z,17.79
2018-09-04T02:02:01.145Z,17.81
2018-09-04T02:03:01.116Z,17.69
2018-09-04T02:04:54.706Z,17.63
2018-09-04T02:05:54.507Z,17.68
2018-09-04T02:07:47.393Z,17.62
2018-09-04T02:08:47.391Z,17.63
2018-09-04T02:10:42.001Z,17.56
2018-09-04T02:11:41.740Z,17.50
2018-09-04T02:13:35.839Z,17.50
2018-09-04T02:14:35.667Z,17.50
2018-09-04T02:16:28.899Z,17.49
2018-09-04T02:17:28.837Z,17.50
2018-09-04T02:21:30.571Z,17.41
2018-09-04T02:23:23.943Z,17.49
2018-09-04T02:24:23.918Z,17.38
2018-09-04T02:26:17.176Z,17.37
2018-09-04T02:27:17.006Z,17.38
2018-09-04T02:29:09.993Z,17.43
2018-09-04T02:30:09.888Z,17.31
2018-09-04T02:32:03.341Z,17.39
2018-09-04T02:33:03.312Z,17.31
2018-09-04T02:34:56.312Z,17.35
2018-09-04T02:35:56.122Z,17.37
2018-09-04T02:37:49.025Z,17.43
2018-09-04T02:38:49.015Z,17.37
2018-09-04T02:40:42.134Z,17.34
2018-09-04T02:41:41.869Z,17.38
2018-09-04T02:43:35.514Z,17.35
2018-09-04T02:44:35.256Z,17.37
2018-09-04T02:46:29.017Z,17.27
2018-09-04T02:47:28.870Z,17.34
2018-09-04T02:49:21.803Z,17.24
2018-09-04T02:50:21.752Z,17.19
2018-09-04T02:52:14.404Z,17.16
2018-09-04T02:53:14.654Z,17.28
2018-09-04T02:55:07.572Z,17.20
2018-09-04T02:56:07.618Z,17.07
2018-09-04T02:58:00.237Z,17.10
2018-09-04T02:59:00.479Z,17.09
2018-09-04T03:00:53.824Z,17.01
2018-09-04T03:01:53.799Z,17.09
2018-09-04T03:03:47.166Z,17.10
2018-09-04T03:04:47.186Z,17.02
2018-09-04T03:06:40.530Z,16.97
2018-09-04T03:07:40.497Z,16.97
2018-09-04T03:09:33.905Z,16.97
2018-09-04T03:10:33.868Z,16.94
2018-09-04T03:12:26.853Z,16.95
2018-09-04T03:13:26.876Z,16.92
2018-09-04T03:15:20.697Z,16.95
2018-09-04T03:16:20.405Z,16.91
2018-09-04T03:18:14.095Z,16.88
2018-09-04T03:19:13.752Z,16.92
2018-09-04T03:21:07.454Z,16.95
2018-09-04T03:22:07.492Z,16.87
2018-09-04T03:24:00.891Z,16.91
2018-09-04T03:25:00.867Z,16.95
2018-09-04T03:26:53.845Z,16.84
2018-09-04T03:27:53.799Z,16.92
2018-09-04T03:29:47.205Z,16.88
2018-09-04T03:30:47.163Z,16.80
2018-09-04T03:32:40.049Z,16.77
2018-09-04T03:33:40.091Z,16.79
2018-09-04T03:35:33.497Z,16.88
2018-09-04T03:36:33.493Z,16.82
2018-09-04T03:38:27.085Z,16.79
2018-09-04T03:39:26.747Z,16.77
2018-09-04T03:41:19.883Z,16.73
2018-09-04T03:42:20.433Z,16.79
2018-09-04T03:44:13.505Z,16.80
2018-09-04T03:45:13.250Z,16.79
2018-09-04T03:47:07.899Z,16.73
2018-09-04T03:48:07.638Z,16.69
2018-09-04T03:50:01.243Z,16.73
2018-09-04T03:51:01.533Z,16.76
2018-09-04T03:52:54.646Z,16.79
2018-09-04T03:53:53.861Z,16.76
2018-09-04T03:55:47.611Z,16.76
2018-09-04T03:56:47.220Z,16.73
2018-09-04T03:58:40.415Z,16.73
2018-09-04T03:59:40.117Z,16.76
2018-09-04T04:01:33.890Z,16.80
2018-09-04T04:02:33.485Z,16.76
2018-09-04T04:04:26.913Z,16.83
2018-09-04T04:05:26.902Z,16.84
2018-09-04T04:07:20.498Z,16.84
2018-09-04T04:08:20.296Z,16.74
2018-09-04T04:10:13.907Z,16.70
2018-09-04T04:11:13.628Z,16.76
2018-09-04T04:13:07.322Z,16.79
2018-09-04T04:14:07.115Z,16.72
2018-09-04T04:16:00.735Z,16.72
2018-09-04T04:17:00.688Z,16.70
2018-09-04T04:18:54.118Z,16.72
2018-09-04T04:19:54.019Z,16.73
2018-09-04T04:21:47.232Z,16.72
2018-09-04T04:22:47.455Z,16.69
2018-09-04T04:24:40.481Z,16.74
2018-09-04T04:25:40.960Z,16.73
2018-09-04T04:27:33.560Z,16.70
2018-09-04T04:28:33.477Z,16.65
2018-09-04T04:30:26.636Z,16.73
2018-09-04T04:31:26.502Z,16.73
2018-09-04T04:33:19.885Z,16.70
2018-09-04T04:34:19.833Z,16.65
2018-09-04T04:36:13.208Z,16.77
2018-09-04T04:37:13.198Z,16.69
2018-09-04T04:39:06.090Z,16.69
2018-09-04T04:40:06.082Z,16.72
2018-09-04T04:41:59.426Z,16.67
2018-09-04T04:42:59.393Z,16.74
2018-09-04T04:44:52.568Z,16.67
2018-09-04T04:45:52.273Z,16.72
2018-09-04T04:47:45.480Z,16.64
2018-09-04T04:48:45.140Z,16.64
2018-09-04T04:50:38.558Z,16.61
2018-09-04T04:51:38.529Z,16.65
2018-09-04T04:53:32.108Z,16.61
2018-09-04T04:54:31.957Z,16.65
2018-09-04T04:56:25.435Z,16.61
2018-09-04T04:57:25.291Z,16.62
2018-09-04T04:59:18.699Z,16.62
2018-09-04T05:00:18.655Z,16.62
2018-09-04T05:02:12.241Z,16.70
2018-09-04T05:03:12.043Z,16.64
2018-09-04T05:05:05.480Z,16.64
2018-09-04T05:06:05.413Z,16.65
2018-09-04T05:07:58.284Z,16.65
2018-09-04T05:08:58.267Z,16.62
2018-09-04T05:10:51.656Z,16.59
2018-09-04T05:11:51.650Z,16.64
2018-09-04T05:13:45.195Z,16.69
2018-09-04T05:14:45.001Z,16.69
2018-09-04T05:16:37.894Z,16.70
2018-09-04T05:17:37.880Z,16.84
2018-09-04T05:19:31.268Z,16.83
2018-09-04T05:20:31.235Z,16.83
2018-09-04T05:22:24.374Z,16.88
2018-09-04T05:23:24.101Z,16.90
2018-09-04T05:25:17.498Z,16.88
2018-09-04T05:26:17.474Z,16.94
2018-09-04T05:28:10.374Z,17.02
2018-09-04T05:29:10.358Z,17.06
2018-09-04T05:31:03.749Z,17.06
2018-09-04T05:32:03.726Z,17.14
2018-09-04T05:33:57.115Z,17.19
2018-09-04T05:34:57.103Z,17.19
2018-09-04T05:36:50.580Z,17.31
2018-09-04T05:37:50.480Z,17.35
2018-09-04T05:39:44.981Z,17.37
2018-09-04T05:40:43.958Z,17.43
2018-09-04T05:42:37.241Z,17.56
2018-09-04T05:43:37.226Z,17.68
2018-09-04T05:45:31.155Z,17.72
2018-09-04T05:46:30.594Z,17.81
2018-09-04T05:48:23.984Z,17.90
2018-09-04T05:49:23.979Z,18.02
2018-09-04T05:51:17.050Z,18.11
2018-09-04T05:52:16.861Z,18.09
2018-09-04T05:54:10.065Z,18.17
2018-09-04T05:55:10.064Z,18.36
2018-09-04T05:57:03.589Z,18.54
2018-09-04T05:58:03.372Z,18.61
2018-09-04T05:59:56.791Z,18.68
2018-09-04T06:00:56.750Z,18.75
2018-09-04T06:02:50.184Z,18.88
2018-09-04T06:03:50.110Z,19.01
2018-09-04T06:05:43.545Z,19.05
2018-09-04T06:06:43.497Z,19.17
2018-09-04T06:08:36.904Z,19.31
2018-09-04T06:09:36.877Z,19.22
2018-09-04T06:11:30.843Z,19.41
2018-09-04T06:12:30.251Z,19.44
2018-09-04T06:14:23.211Z,19.44
2018-09-04T06:15:23.156Z,19.50
2018-09-04T06:17:16.750Z,19.49
2018-09-04T06:18:16.528Z,19.57
2018-09-04T06:20:09.498Z,19.59
2018-09-04T06:21:09.410Z,19.57
2018-09-04T06:23:03.085Z,19.63
2018-09-04T06:24:02.768Z,19.56
2018-09-04T06:25:56.189Z,19.78
2018-09-04T06:26:56.154Z,19.74
2018-09-04T06:28:49.628Z,19.82
2018-09-04T06:29:49.537Z,19.79
2018-09-04T06:31:45.296Z,19.78
2018-09-04T06:32:43.212Z,19.77
2018-09-04T06:34:36.895Z,20.04
2018-09-04T06:35:36.501Z,20.02
2018-09-04T06:37:31.485Z,20.11
2018-09-04T06:38:30.883Z,20.07
2018-09-04T06:40:24.677Z,20.14
2018-09-04T06:41:23.761Z,20.25
2018-09-04T06:43:17.536Z,20.27
2018-09-04T06:44:17.993Z,20.30
2018-09-04T06:46:10.935Z,20.48
2018-09-04T06:47:10.862Z,20.55
2018-09-04T06:49:04.314Z,20.58
2018-09-04T06:50:03.932Z,20.64
2018-09-04T06:51:58.221Z,20.83
2018-09-04T06:52:57.678Z,20.89
2018-09-04T06:54:51.127Z,21.05
2018-09-04T06:55:51.297Z,21.07
2018-09-04T06:57:44.229Z,21.26
2018-09-04T06:58:43.878Z,21.29
2018-09-04T07:00:37.632Z,21.38
2018-09-04T07:01:37.264Z,21.51
2018-09-04T07:03:31.244Z,21.66
2018-09-04T07:04:31.074Z,21.69
2018-09-04T07:06:24.361Z,21.80
2018-09-04T07:07:24.420Z,21.90
2018-09-04T07:09:17.919Z,21.98
2018-09-04T07:10:17.781Z,22.07
2018-09-04T07:12:10.679Z,22.21
2018-09-04T07:13:10.290Z,22.19
2018-09-04T07:15:03.373Z,22.34
2018-09-04T07:16:03.157Z,22.33
2018-09-04T07:17:57.041Z,22.43
2018-09-04T07:18:56.583Z,22.44
2018-09-04T07:20:50.413Z,22.53
2018-09-04T07:21:49.991Z,22.66
2018-09-04T07:23:43.468Z,22.76
2018-09-04T07:24:43.754Z,22.83
2018-09-04T07:26:37.157Z,22.92
2018-09-04T07:27:37.282Z,22.85
2018-09-04T07:29:29.990Z,23.04
2018-09-04T07:30:29.957Z,23.10
2018-09-04T07:32:23.153Z,23.10
2018-09-04T07:33:23.048Z,23.10
2018-09-04T07:35:17.336Z,23.29
2018-09-04T07:36:16.821Z,23.23
2018-09-04T07:38:10.144Z,23.25
2018-09-04T07:39:09.801Z,23.17
2018-09-04T07:41:04.574Z,23.17
2018-09-04T07:42:04.354Z,23.26
2018-09-04T07:43:57.959Z,23.34
2018-09-04T07:44:57.957Z,23.37
2018-09-04T07:46:50.872Z,23.31
2018-09-04T07:47:50.461Z,23.44
2018-09-04T07:49:43.794Z,23.46
2018-09-04T07:50:43.383Z,23.59
2018-09-04T07:52:38.395Z,23.61
2018-09-04T07:53:36.842Z,23.76
2018-09-04T07:55:30.014Z,23.78
2018-09-04T07:56:29.624Z,23.85
2018-09-04T07:58:22.551Z,23.73
2018-09-04T07:59:22.778Z,23.79
2018-09-04T08:01:16.677Z,23.79
2018-09-04T08:02:16.995Z,23.82
2018-09-04T08:04:10.196Z,23.81
2018-09-04T08:05:09.513Z,23.82
2018-09-04T08:07:03.849Z,23.76
2018-09-04T08:08:02.472Z,23.84
2018-09-04T08:09:56.234Z,23.79
2018-09-04T08:10:56.110Z,23.76
2018-09-04T08:12:49.464Z,23.66
2018-09-04T08:13:49.253Z,23.76
2018-09-04T08:15:42.835Z,23.74
2018-09-04T08:16:42.598Z,23.74
2018-09-04T08:18:36.354Z,23.91
2018-09-04T08:19:36.027Z,23.98
2018-09-04T08:21:29.676Z,23.88
2018-09-04T08:22:29.410Z,23.94
2018-09-04T08:24:23.877Z,24.04
2018-09-04T08:25:22.420Z,24.15
2018-09-04T08:27:16.093Z,24.06
2018-09-04T08:28:15.793Z,24.15
2018-09-04T08:30:09.565Z,24.23
2018-09-04T08:31:09.734Z,24.33
2018-09-04T08:33:02.937Z,24.31
2018-09-04T08:34:02.655Z,24.34
2018-09-04T08:35:56.354Z,24.19
2018-09-04T08:36:56.084Z,24.29
2018-09-04T08:38:49.034Z,24.29
2018-09-04T08:39:49.242Z,24.25
2018-09-04T08:41:42.657Z,24.23
2018-09-04T08:42:42.382Z,24.33
2018-09-04T08:44:36.880Z,24.26
2018-09-04T08:45:36.316Z,24.31
2018-09-04T08:47:29.608Z,24.45
2018-09-04T08:48:29.210Z,24.38
2018-09-04T08:50:23.198Z,24.34
2018-09-04T08:51:22.581Z,24.28
2018-09-04T08:53:16.544Z,24.33
2018-09-04T08:54:16.002Z,24.37
2018-09-04T08:56:10.255Z,24.38
2018-09-04T08:57:09.373Z,24.31
2018-09-04T08:59:02.860Z,24.29
2018-09-04T09:00:02.783Z,24.31
2018-09-04T09:01:56.032Z,24.33
2018-09-04T09:02:55.692Z,24.34
2018-09-04T09:04:48.627Z,24.33
2018-09-04T09:05:48.545Z,24.45
2018-09-04T09:07:42.764Z,24.45
2018-09-04T09:08:41.485Z,24.47
2018-09-04T09:10:34.983Z,24.47
2018-09-04T09:11:34.827Z,24.52
2018-09-04T09:13:28.508Z,24.48
2018-09-04T09:14:28.271Z,24.48
2018-09-04T09:16:21.186Z,24.40
2018-09-04T09:17:21.150Z,24.44
2018-09-04T09:19:14.424Z,24.34
2018-09-04T09:20:14.608Z,24.28
2018-09-04T09:22:07.347Z,24.18
2018-09-04T09:23:06.985Z,24.04
2018-09-04T09:25:00.392Z,24.01
2018-09-04T09:26:00.376Z,24.11
2018-09-04T09:27:54.086Z,24.06
2018-09-04T09:28:53.778Z,24.01
2018-09-04T09:30:47.411Z,23.84
2018-09-04T09:31:47.147Z,23.96
2018-09-04T09:33:40.292Z,24.01
2018-09-04T09:34:40.081Z,24.10
2018-09-04T09:36:34.557Z,24.07
2018-09-04T09:37:33.459Z,24.08
2018-09-04T09:39:28.660Z,24.23
2018-09-04T09:40:27.825Z,24.16
2018-09-04T09:42:23.255Z,24.16
2018-09-04T09:43:22.224Z,24.19
2018-09-04T09:45:15.615Z,24.23
2018-09-04T09:46:15.584Z,24.33
2018-09-04T09:48:08.657Z,24.34
2018-09-04T09:49:08.498Z,24.40
2018-09-04T09:51:01.546Z,24.38
2018-09-04T09:52:01.431Z,24.43
2018-09-04T09:53:54.870Z,24.51
2018-09-04T09:54:54.760Z,24.52
2018-09-04T09:56:49.959Z,24.51
2018-09-04T09:57:49.712Z,24.43
2018-09-04T09:59:42.816Z,24.41
2018-09-04T10:00:43.092Z,24.48
2018-09-04T10:02:35.733Z,24.48
2018-09-04T10:03:35.416Z,24.52
2018-09-04T10:05:29.445Z,24.60
2018-09-04T10:06:29.083Z,24.75
2018-09-04T10:08:22.573Z,24.74
2018-09-04T10:09:22.198Z,24.75
2018-09-04T10:11:15.416Z,24.55
2018-09-04T10:12:15.103Z,24.53
2018-09-04T10:14:08.737Z,24.52
2018-09-04T10:15:08.551Z,24.68
2018-09-04T10:17:01.646Z,24.48
2018-09-04T10:18:01.367Z,24.59
2018-09-04T10:19:55.063Z,24.62
2018-09-04T10:20:54.749Z,24.58
2018-09-04T10:22:48.755Z,24.63
2018-09-04T10:23:48.119Z,24.66
2018-09-04T10:25:41.684Z,24.74
2018-09-04T10:26:41.810Z,24.85
2018-09-04T10:28:35.187Z,24.89
2018-09-04T10:29:34.942Z,24.94
2018-09-04T10:31:28.631Z,25.04
2018-09-04T10:32:28.297Z,25.01
2018-09-04T10:34:21.711Z,25.18
2018-09-04T10:35:21.985Z,25.27
2018-09-04T10:37:15.455Z,25.36
2018-09-04T10:38:14.699Z,25.34
2018-09-04T10:40:07.889Z,25.43
2018-09-04T10:41:07.595Z,25.41
2018-09-04T10:43:00.978Z,25.53
2018-09-04T10:44:00.981Z,25.53
2018-09-04T10:45:54.202Z,25.56
2018-09-04T10:46:53.876Z,25.53
2018-09-04T10:48:47.563Z,25.64
2018-09-04T10:49:47.268Z,25.68
2018-09-04T10:51:40.963Z,25.75
2018-09-04T10:52:40.650Z,25.88
2018-09-04T10:54:33.895Z,25.96
2018-09-04T10:55:33.633Z,26.00
2018-09-04T10:57:27.263Z,26.08
2018-09-04T10:58:26.949Z,26.24
2018-09-04T11:00:20.399Z,26.20
2018-09-04T11:01:20.121Z,26.28
2018-09-04T11:03:13.057Z,26.24
2018-09-04T11:04:13.001Z,26.33
2018-09-04T11:06:06.807Z,26.20
2018-09-04T11:07:05.935Z,26.27
2018-09-04T11:08:59.238Z,26.11
2018-09-04T11:09:58.980Z,26.00
2018-09-04T11:11:54.628Z,26.05
2018-09-04T11:12:51.703Z,26.15
2018-09-04T11:14:45.446Z,26.05
2018-09-04T11:15:45.446Z,26.20
2018-09-04T11:17:38.918Z,26.27
2018-09-04T11:18:38.480Z,26.20
2018-09-04T11:20:32.053Z,26.21
2018-09-04T11:21:31.898Z,26.26
2018-09-04T11:23:26.716Z,26.39
2018-09-04T11:24:25.273Z,26.39
2018-09-04T11:26:18.513Z,26.31
2018-09-04T11:27:18.287Z,26.30
2018-09-04T11:29:11.589Z,26.31
2018-09-04T11:30:11.548Z,26.36
2018-09-04T11:32:05.894Z,26.28
2018-09-04T11:33:05.504Z,26.39
2018-09-04T11:35:02.153Z,26.26
2018-09-04T11:35:59.409Z,26.27
2018-09-04T11:37:52.513Z,26.28
2018-09-04T11:38:52.789Z,26.34
2018-09-04T11:40:45.587Z,26.39
2018-09-04T11:41:45.165Z,26.41
2018-09-04T11:43:38.915Z,26.45
2018-09-04T11:44:38.545Z,26.52
2018-09-04T11:46:34.313Z,26.73
2018-09-04T11:47:32.321Z,26.79
2018-09-04T11:49:25.154Z,26.89
2018-09-04T11:50:25.192Z,26.88
2018-09-04T11:52:18.156Z,26.90
2018-09-04T11:53:17.764Z,26.75
2018-09-04T11:55:12.165Z,26.71
2018-09-04T11:56:11.173Z,26.75
2018-09-04T11:58:06.647Z,26.67
2018-09-04T11:59:06.604Z,26.64
2018-09-04T12:00:58.675Z,26.67
2018-09-04T12:01:58.379Z,26.53
2018-09-04T12:03:53.840Z,26.53
2018-09-04T12:04:52.727Z,26.60
2018-09-04T12:06:46.314Z,26.60
2018-09-04T12:07:46.231Z,26.58
2018-09-04T12:09:39.410Z,26.57
2018-09-04T12:10:39.338Z,26.64
2018-09-04T12:12:34.859Z,26.65
2018-09-04T12:13:34.136Z,26.71
2018-09-04T12:15:29.320Z,26.65
2018-09-04T12:16:27.151Z,26.61
2018-09-04T12:18:20.819Z,26.63
2018-09-04T12:19:20.666Z,26.73
2018-09-04T12:21:14.370Z,26.73
2018-09-04T12:22:15.234Z,26.73
2018-09-04T12:24:07.786Z,26.71
2018-09-04T12:25:07.728Z,26.73
2018-09-04T12:27:02.257Z,26.88
2018-09-04T12:28:02.223Z,27.04
2018-09-04T12:29:55.700Z,26.85
2018-09-04T12:30:53.865Z,26.93
2018-09-04T12:33:03.027Z,26.90
2018-09-04T12:34:00.193Z,26.89
2018-09-04T12:35:56.703Z,26.88
2018-09-04T12:36:53.983Z,26.93
2018-09-04T12:38:47.621Z,26.78
2018-09-04T12:39:46.280Z,26.67
2018-09-04T12:41:41.277Z,26.58
2018-09-04T12:42:41.376Z,26.53
2018-09-04T12:44:47.492Z,26.65
2018-09-04T12:45:32.854Z,26.61
2018-09-04T12:47:30.381Z,26.51
2018-09-04T12:48:28.505Z,26.60
2018-09-04T12:50:22.718Z,26.45
2018-09-04T12:51:20.163Z,26.34
2018-09-04T12:53:13.395Z,26.52
2018-09-04T12:54:13.125Z,26.68
2018-09-04T12:56:06.873Z,26.75
2018-09-04T12:57:06.501Z,26.79
2018-09-04T12:58:59.525Z,26.63
2018-09-04T12:59:59.492Z,26.80
2018-09-04T13:01:52.469Z,26.86
2018-09-04T13:02:52.678Z,26.88
2018-09-04T13:04:46.229Z,27.13
2018-09-04T13:05:45.865Z,27.19
2018-09-04T13:07:39.784Z,27.13
2018-09-04T13:08:39.199Z,27.26
2018-09-04T13:10:32.702Z,27.37
2018-09-04T13:11:32.579Z,27.42
2018-09-04T13:13:27.687Z,27.52
2018-09-04T13:14:26.151Z,27.54
2018-09-04T13:16:19.287Z,27.35
2018-09-04T13:17:19.255Z,27.42
2018-09-04T13:19:12.987Z,27.42
2018-09-04T13:20:12.684Z,27.45
2018-09-04T13:22:06.458Z,27.35
2018-09-04T13:23:06.600Z,27.31
2018-09-04T13:24:59.776Z,27.22
2018-09-04T13:25:59.452Z,27.23
2018-09-04T13:27:53.004Z,27.19
2018-09-04T13:28:53.387Z,27.17
2018-09-04T13:30:46.374Z,27.15
2018-09-04T13:31:46.274Z,27.07
2018-09-04T13:33:40.022Z,27.05
2018-09-04T13:34:39.664Z,27.04
2018-09-04T13:36:33.925Z,26.88
2018-09-04T13:37:32.559Z,26.88
2018-09-04T13:39:38.358Z,26.79
2018-09-04T13:40:38.015Z,26.71
2018-09-04T13:42:33.015Z,26.65
2018-09-04T13:44:46.225Z,26.60
2018-09-04T13:45:45.202Z,26.53
2018-09-04T13:47:40.947Z,26.39
2018-09-04T13:48:38.779Z,26.48
2018-09-04T13:50:32.510Z,26.52
2018-09-04T13:51:32.140Z,26.42
2018-09-04T13:53:27.159Z,26.38
2018-09-04T13:54:25.995Z,26.39
2018-09-04T13:56:19.601Z,26.43
2018-09-04T13:57:18.673Z,26.42
2018-09-04T13:59:12.829Z,26.52
2018-09-04T14:00:14.859Z,26.39
2018-09-04T14:02:06.044Z,26.41
2018-09-04T14:03:06.018Z,26.49
2018-09-04T14:05:00.013Z,26.60
2018-09-04T14:05:59.009Z,26.64
2018-09-04T14:07:53.347Z,26.63
2018-09-04T14:08:52.231Z,26.64
2018-09-04T14:10:46.445Z,26.68
2018-09-04T14:11:45.180Z,26.71
2018-09-04T14:13:38.917Z,26.73
2018-09-04T14:14:37.947Z,26.71
2018-09-04T14:16:43.152Z,26.79
2018-09-04T14:17:32.188Z,26.80
2018-09-04T14:19:28.508Z,26.76
2018-09-04T14:20:26.077Z,26.71
2018-09-04T14:22:19.253Z,26.68
2018-09-04T14:23:17.919Z,26.68
2018-09-04T14:25:14.863Z,26.70
2018-09-04T14:26:11.745Z,26.65
2018-09-04T14:28:04.892Z,26.64
2018-09-04T14:29:07.049Z,26.58
2018-09-04T14:30:58.551Z,26.61
2018-09-04T14:31:58.021Z,26.56
2018-09-04T14:33:54.359Z,26.71
2018-09-04T14:34:51.745Z,26.63
2018-09-04T14:36:45.651Z,26.63
2018-09-04T14:37:44.222Z,26.58
2018-09-04T14:39:37.512Z,26.61
2018-09-04T14:40:37.200Z,26.57
2018-09-04T14:42:31.768Z,26.58
2018-09-04T14:43:30.791Z,26.49
2018-09-04T14:45:25.333Z,26.49
2018-09-04T14:46:24.291Z,26.56
2018-09-04T14:48:18.376Z,26.61
2018-09-04T14:49:18.406Z,26.58
2018-09-04T14:51:11.248Z,26.63
2018-09-04T14:52:10.869Z,26.65
2018-09-04T14:54:05.058Z,26.64
2018-09-04T14:55:04.628Z,26.61
2018-09-04T14:56:57.517Z,26.61
2018-09-04T14:57:59.713Z,26.67
2018-09-04T14:59:50.667Z,26.68
2018-09-04T15:00:51.397Z,26.67
2018-09-04T15:02:47.405Z,26.70
2018-09-04T15:03:43.878Z,26.73
2018-09-04T15:05:40.653Z,26.75
2018-09-04T15:06:41.334Z,26.73
2018-09-04T15:08:33.886Z,26.64
2018-09-04T15:09:32.084Z,26.64
2018-09-04T15:11:25.703Z,26.60
2018-09-04T15:12:25.075Z,26.63
2018-09-04T15:14:22.678Z,26.58
2018-09-04T15:15:18.737Z,26.57
2018-09-04T15:17:12.440Z,26.39
2018-09-04T15:18:12.103Z,26.38
2018-09-04T15:20:05.473Z,26.38
2018-09-04T15:21:04.990Z,26.31
2018-09-04T15:22:59.349Z,26.27
2018-09-04T15:23:58.410Z,26.27
2018-09-04T15:25:53.583Z,26.19
2018-09-04T15:26:52.780Z,26.15
2018-09-04T15:28:46.502Z,26.11
2018-09-04T15:29:46.746Z,26.05
2018-09-04T15:31:40.364Z,26.20
2018-09-04T15:32:40.212Z,26.08
2018-09-04T15:34:33.575Z,26.08
2018-09-04T15:35:33.535Z,26.10
2018-09-04T15:37:27.065Z,26.23
2018-09-04T15:38:26.930Z,26.24
2018-09-04T15:40:20.345Z,26.28
2018-09-04T15:41:20.345Z,26.27
2018-09-04T15:43:13.753Z,26.28
2018-09-04T15:44:13.703Z,26.33
2018-09-04T15:46:08.349Z,26.39
2018-09-04T15:47:08.081Z,26.38
2018-09-04T15:49:02.860Z,26.36
2018-09-04T15:50:02.472Z,26.38
2018-09-04T15:51:55.649Z,26.38
2018-09-04T15:52:55.410Z,26.42
2018-09-04T15:54:49.620Z,26.45
2018-09-04T15:55:48.750Z,26.45
2018-09-04T15:57:44.285Z,26.56
2018-09-04T15:58:43.149Z,26.52
2018-09-04T16:00:37.933Z,26.46
2018-09-04T16:01:37.516Z,26.56
2018-09-04T16:03:31.361Z,26.43
2018-09-04T16:04:31.084Z,26.34
2018-09-04T16:06:24.114Z,26.34
2018-09-04T16:07:23.891Z,26.46
2018-09-04T16:09:16.899Z,26.36
2018-09-04T16:10:16.757Z,26.42
2018-09-04T16:12:10.526Z,26.39
2018-09-04T16:13:10.124Z,26.33
2018-09-04T16:15:03.078Z,26.34
2018-09-04T16:16:03.060Z,26.23
2018-09-04T16:17:57.138Z,26.26
2018-09-04T16:18:57.473Z,26.27
2018-09-04T16:20:50.492Z,26.19
2018-09-04T16:21:50.121Z,26.23
2018-09-04T16:23:43.918Z,26.08
2018-09-04T16:24:43.576Z,26.07
2018-09-04T16:26:37.490Z,26.10
2018-09-04T16:27:36.811Z,26.10
2018-09-04T16:29:31.208Z,26.04
2018-09-04T16:30:30.117Z,25.93
2018-09-04T16:32:23.090Z,25.96
2018-09-04T16:33:23.065Z,25.92
2018-09-04T16:35:16.787Z,25.86
2018-09-04T16:36:16.491Z,25.88
2018-09-04T16:38:10.175Z,25.85
2018-09-04T16:39:09.859Z,25.89
2018-09-04T16:41:04.130Z,25.93
2018-09-04T16:42:03.201Z,25.96
2018-09-04T16:43:56.945Z,25.89
2018-09-04T16:44:57.140Z,25.85
2018-09-04T16:46:50.436Z,25.88
2018-09-04T16:47:50.053Z,25.83
2018-09-04T16:49:43.442Z,25.85
2018-09-04T16:50:43.420Z,25.85
2018-09-04T16:52:37.093Z,25.77
2018-09-04T16:53:36.785Z,25.83
2018-09-04T16:55:29.740Z,25.82
2018-09-04T16:56:29.668Z,25.86
2018-09-04T16:58:23.654Z,25.82
2018-09-04T16:59:23.112Z,25.82
2018-09-04T17:01:16.499Z,25.88
2018-09-04T17:02:17.030Z,25.73
2018-09-04T17:04:09.503Z,25.68
2018-09-04T17:05:09.770Z,25.64
2018-09-04T17:07:02.914Z,25.64
2018-09-04T17:08:02.637Z,25.63
2018-09-04T17:09:56.477Z,25.58
2018-09-04T17:10:55.893Z,25.61
2018-09-04T17:12:49.152Z,25.49
2018-09-04T17:13:48.810Z,25.43
2018-09-04T17:15:42.625Z,25.40
2018-09-04T17:16:42.635Z,25.33
2018-09-04T17:18:35.222Z,25.33
2018-09-04T17:19:35.120Z,25.31
2018-09-04T17:21:28.850Z,25.22
2018-09-04T17:22:28.495Z,25.11
2018-09-04T17:24:21.890Z,24.97
2018-09-04T17:25:21.865Z,24.85
2018-09-04T17:27:16.430Z,24.82
2018-09-04T17:28:16.254Z,24.82
2018-09-04T17:30:18.729Z,24.71
2018-09-04T17:31:09.154Z,24.70
2018-09-04T17:33:02.954Z,24.65
2018-09-04T17:34:02.580Z,24.52
2018-09-04T17:35:56.390Z,24.45
2018-09-04T17:36:56.815Z,24.40
2018-09-04T17:38:49.362Z,24.26
2018-09-04T17:39:51.159Z,24.33
2018-09-04T17:41:47.361Z,24.29
2018-09-04T17:42:45.478Z,24.23
2018-09-04T17:44:36.356Z,24.11
2018-09-04T17:45:36.034Z,24.18
2018-09-04T17:48:20.864Z,24.19
2018-09-04T17:49:20.567Z,24.08
2018-09-04T17:51:14.315Z,24.06
2018-09-04T17:52:14.204Z,24.04
2018-09-04T17:54:07.181Z,23.92
2018-09-04T17:55:07.146Z,23.98
2018-09-04T17:56:59.906Z,23.86
2018-09-04T17:58:00.172Z,23.89
2018-09-04T17:59:52.643Z,23.94
2018-09-04T18:00:52.944Z,23.79
2018-09-04T18:02:46.473Z,23.84
2018-09-04T18:03:46.003Z,23.86
2018-09-04T18:05:39.336Z,23.84
2018-09-04T18:06:38.951Z,23.85
2018-09-04T18:08:33.253Z,23.76
2018-09-04T18:09:32.266Z,23.82
2018-09-04T18:11:28.573Z,23.70
2018-09-04T18:12:25.902Z,23.74
2018-09-04T18:14:18.952Z,23.59
2018-09-04T18:15:19.443Z,23.64
2018-09-04T18:17:12.435Z,23.54
2018-09-04T18:18:11.681Z,23.51
2018-09-04T18:20:05.941Z,23.42
2018-09-04T18:21:05.459Z,23.44
2018-09-04T18:22:59.242Z,23.37
2018-09-04T18:23:59.258Z,23.37
2018-09-04T18:25:53.213Z,23.23
2018-09-04T18:26:52.832Z,23.23
2018-09-04T18:28:45.891Z,23.25
2018-09-04T18:29:46.233Z,23.21
2018-09-04T18:31:39.644Z,23.15
2018-09-04T18:32:39.548Z,23.07
2018-09-04T18:34:33.035Z,23.03
2018-09-04T18:35:32.988Z,22.95
2018-09-04T18:37:26.914Z,22.85
2018-09-04T18:38:26.442Z,22.88
2018-09-04T18:40:19.724Z,22.78